Time;durP1;ratioP1;P1;durP2;ratioP2;P2;SDS_P1;SDS_P2;PMS_P1;PMS_P2;Temp;Humidity;BMP_temperature;BMP_pressure;BME280_temperature;BME280_humidity;BME280_pressure;Samples;Min_cycle;Max_cycle;Signal;HPM_P1;HPM_P2
2023/07/04 00:01:00;;;;;;;2.28;1.42;;;26.00;42.30;;;;;;4975664;28;20030;-62
2023/07/04 00:03:28;;;;;;;1.52;1.10;;;26.00;42.30;;;;;;4978855;28;20031;-62
2023/07/04 00:05:55;;;;;;;1.90;1.20;;;26.00;42.30;;;;;;4979775;28;20023;-62
2023/07/04 00:08:22;;;;;;;1.77;1.20;;;26.00;42.40;;;;;;4978904;28;20023;-62
2023/07/04 00:10:50;;;;;;;1.98;1.20;;;26.00;42.30;;;;;;4978317;28;20057;-63
2023/07/04 00:13:17;;;;;;;1.50;1.15;;;26.00;42.30;;;;;;4979716;28;20041;-62
2023/07/04 00:15:51;;;;;;;1.77;1.10;;;26.00;42.40;;;;;;4983121;28;20072;-62
2023/07/04 00:18:20;;;;;;;1.73;1.30;;;26.00;42.40;;;;;;4982683;28;20034;-63
2023/07/04 00:20:54;;;;;;;1.90;1.23;;;26.00;42.40;;;;;;4981556;28;20037;-63
2023/07/04 00:23:24;;;;;;;2.28;1.30;;;26.00;42.40;;;;;;4982258;28;20480;-62
2023/07/04 00:25:52;;;;;;;2.28;1.30;;;26.00;42.40;;;;;;4965906;28;20023;-62
2023/07/04 00:28:21;;;;;;;1.88;1.20;;;26.00;42.40;;;;;;4966615;28;20029;-62
2023/07/04 00:30:52;;;;;;;2.07;1.20;;;25.90;42.40;;;;;;4981872;28;20125;-62
2023/07/04 00:33:19;;;;;;;1.92;1.20;;;26.00;42.40;;;;;;4983065;28;20109;-62
2023/07/04 00:35:45;;;;;;;2.20;1.50;;;26.00;42.40;;;;;;4983078;28;20037;-62
2023/07/04 00:38:12;;;;;;;2.33;1.40;;;26.00;42.40;;;;;;4983197;28;20383;-62
2023/07/04 00:40:38;;;;;;;2.00;1.25;;;26.00;42.50;;;;;;4965853;28;20045;-62
2023/07/04 00:43:05;;;;;;;2.20;1.30;;;25.90;42.40;;;;;;4981798;28;20038;-62
2023/07/04 00:45:42;;;;;;;1.80;1.20;;;26.00;42.50;;;;;;4964560;28;20026;-62
2023/07/04 00:48:11;;;;;;;1.73;1.10;;;26.00;42.50;;;;;;4967408;28;20572;-62
2023/07/04 00:50:46;;;;;;;1.85;1.15;;;25.90;42.40;;;;;;4981840;28;20026;-62
2023/07/04 00:53:14;;;;;;;2.05;1.30;;;26.00;42.50;;;;;;4982210;28;20062;-62
2023/07/04 00:55:43;;;;;;;2.22;1.35;;;25.90;42.50;;;;;;4980208;28;20031;-62
2023/07/04 00:58:09;;;;;;;2.30;1.30;;;25.90;42.50;;;;;;4963518;28;20033;-63
2023/07/04 01:00:37;;;;;;;1.80;1.20;;;25.90;42.50;;;;;;4981372;28;20125;-62
2023/07/04 01:03:21;;;;;;;1.63;1.17;;;25.90;42.50;;;;;;4982802;28;20606;-62
2023/07/04 01:06:17;;;;;;;2.30;1.50;;;25.90;42.50;;;;;;4964787;28;20390;-62
2023/07/04 01:08:45;;;;;;;1.92;1.20;;;25.90;42.50;;;;;;4981122;28;20022;-62
2023/07/04 01:11:19;;;;;;;1.90;1.20;;;25.90;42.50;;;;;;4983287;28;20439;-62
2023/07/04 01:13:45;;;;;;;1.95;1.27;;;25.90;42.50;;;;;;4982651;28;20044;-62
2023/07/04 01:16:16;;;;;;;1.73;1.13;;;25.90;42.60;;;;;;4980168;28;20057;-62
2023/07/04 01:18:47;;;;;;;2.10;1.30;;;25.90;42.60;;;;;;4981705;28;20038;-62
2023/07/04 01:21:15;;;;;;;2.10;1.35;;;25.90;42.60;;;;;;4983010;28;20461;-63
2023/07/04 01:23:54;;;;;;;1.88;1.20;;;25.90;42.60;;;;;;4979548;28;20430;-63
2023/07/04 01:26:31;;;;;;;2.28;1.30;;;25.90;42.60;;;;;;4982836;28;20680;-62
2023/07/04 01:28:59;;;;;;;2.08;1.20;;;25.90;42.60;;;;;;4980970;28;20101;-62
2023/07/04 01:31:27;;;;;;;1.55;1.10;;;25.90;42.60;;;;;;4981067;28;20533;-62
2023/07/04 01:33:53;;;;;;;1.40;1.00;;;25.80;42.50;;;;;;4981994;28;20023;-62
2023/07/04 01:36:22;;;;;;;1.75;1.20;;;25.90;42.60;;;;;;4983207;28;20057;-62
2023/07/04 01:38:48;;;;;;;1.75;1.20;;;25.90;42.70;;;;;;4981851;28;20033;-62
2023/07/04 01:41:15;;;;;;;1.75;1.20;;;25.90;42.70;;;;;;4980472;28;20450;-63
2023/07/04 01:43:43;;;;;;;2.13;1.23;;;25.80;42.60;;;;;;4978956;28;20046;-61
2023/07/04 01:46:09;;;;;;;1.67;1.10;;;25.90;42.70;;;;;;4980172;28;20038;-63
2023/07/04 01:48:34;;;;;;;2.17;1.23;;;25.90;42.70;;;;;;4978625;28;20026;-62
2023/07/04 01:51:00;;;;;;;1.73;1.20;;;25.90;42.70;;;;;;4983256;28;20130;-63
2023/07/04 01:53:25;;;;;;;1.40;1.13;;;25.90;42.70;;;;;;4980714;28;20073;-62
2023/07/04 01:55:51;;;;;;;1.42;1.05;;;25.90;42.70;;;;;;4979164;28;20049;-62
2023/07/04 01:58:17;;;;;;;1.73;1.20;;;25.90;42.70;;;;;;4981416;28;20033;-61
2023/07/04 02:00:42;;;;;;;1.58;1.08;;;25.90;42.80;;;;;;4978796;28;20482;-62
2023/07/04 02:03:08;;;;;;;1.52;1.15;;;25.80;42.60;;;;;;4979604;28;20034;-62
2023/07/04 02:05:33;;;;;;;1.95;1.30;;;25.80;42.70;;;;;;4971564;28;20730;-62
2023/07/04 02:07:59;;;;;;;2.58;1.38;;;25.80;43.20;;;;;;4981030;28;20152;-62
2023/07/04 02:10:26;;;;;;;1.85;1.20;;;25.90;42.80;;;;;;4970915;28;20043;-61
2023/07/04 02:12:51;;;;;;;1.58;1.10;;;25.80;42.70;;;;;;4980635;28;20515;-63
2023/07/04 02:15:17;;;;;;;1.35;1.10;;;25.80;42.70;;;;;;4963908;28;20034;-62
2023/07/04 02:17:42;;;;;;;1.52;1.00;;;25.80;42.70;;;;;;4979157;28;20026;-62
2023/07/04 02:20:09;;;;;;;1.90;1.20;;;25.80;42.80;;;;;;4984069;28;20414;-62
2023/07/04 02:22:35;;;;;;;1.75;1.08;;;25.80;42.70;;;;;;4981177;28;20030;-62
2023/07/04 02:25:02;;;;;;;1.63;1.15;;;25.80;42.70;;;;;;4970826;28;20070;-62
2023/07/04 02:27:28;;;;;;;1.65;1.05;;;25.80;42.80;;;;;;4979845;28;20045;-62
2023/07/04 02:29:54;;;;;;;1.65;1.10;;;25.80;42.80;;;;;;4978044;28;20030;-62
2023/07/04 02:32:20;;;;;;;2.53;1.10;;;25.80;42.80;;;;;;4979844;28;20137;-62
2023/07/04 02:34:46;;;;;;;1.80;1.10;;;25.80;42.80;;;;;;4981285;28;20026;-63
2023/07/04 02:37:11;;;;;;;1.83;1.00;;;25.80;42.80;;;;;;4980937;28;20027;-63
2023/07/04 02:39:37;;;;;;;1.70;1.10;;;25.80;42.80;;;;;;4965835;28;20042;-62
2023/07/04 02:42:04;;;;;;;1.92;1.20;;;25.80;42.80;;;;;;4981594;28;20033;-62
2023/07/04 02:44:30;;;;;;;1.45;0.90;;;25.80;42.80;;;;;;4979232;28;20038;-61
2023/07/04 02:46:56;;;;;;;2.65;1.10;;;25.80;42.80;;;;;;4979526;28;20510;-62
2023/07/04 02:49:21;;;;;;;1.70;0.98;;;25.80;42.80;;;;;;4979875;28;20642;-62
2023/07/04 02:51:47;;;;;;;1.63;1.08;;;25.80;42.80;;;;;;4980456;28;20034;-62
2023/07/04 02:54:15;;;;;;;1.77;1.10;;;25.80;42.80;;;;;;4980427;28;20027;-62
2023/07/04 02:56:41;;;;;;;1.60;1.10;;;25.80;42.90;;;;;;4966239;28;20437;-62
2023/07/04 02:59:07;;;;;;;1.30;1.00;;;25.80;42.90;;;;;;4977521;28;20026;-62
2023/07/04 03:01:33;;;;;;;1.20;1.00;;;25.80;42.80;;;;;;4980323;28;20081;-62
2023/07/04 03:03:58;;;;;;;1.20;0.98;;;25.70;42.80;;;;;;4978506;28;20039;-62
2023/07/04 03:06:24;;;;;;;1.33;0.95;;;25.80;42.90;;;;;;4979159;28;20121;-62
2023/07/04 03:08:50;;;;;;;1.92;1.10;;;25.80;42.90;;;;;;4979488;28;20050;-62
2023/07/04 03:11:15;;;;;;;1.90;1.00;;;25.70;42.80;;;;;;4964450;28;20069;-62
2023/07/04 03:13:41;;;;;;;1.20;1.00;;;25.80;42.90;;;;;;4977587;28;20061;-63
2023/07/04 03:16:06;;;;;;;1.80;1.08;;;25.80;43.00;;;;;;4978488;28;20338;-62
2023/07/04 03:18:33;;;;;;;1.52;1.00;;;25.70;42.90;;;;;;4964528;28;20422;-62
2023/07/04 03:20:59;;;;;;;1.80;1.10;;;25.70;42.90;;;;;;4981267;28;20359;-62
2023/07/04 03:23:25;;;;;;;1.38;1.10;;;25.70;42.90;;;;;;4976841;28;20121;-62
2023/07/04 03:25:50;;;;;;;1.60;1.10;;;25.70;42.90;;;;;;4980968;28;20505;-62
2023/07/04 03:28:16;;;;;;;1.25;1.00;;;25.70;42.90;;;;;;4979252;28;20082;-62
2023/07/04 03:30:42;;;;;;;1.63;1.10;;;25.70;42.90;;;;;;4960189;28;20041;-62
2023/07/04 03:33:08;;;;;;;1.75;1.20;;;25.70;42.90;;;;;;4980234;28;20101;-63
2023/07/04 03:35:37;;;;;;;1.52;1.15;;;25.70;42.90;;;;;;4963747;28;20062;-62
2023/07/04 03:38:02;;;;;;;1.50;1.10;;;25.70;43.00;;;;;;4976176;28;20038;-62
2023/07/04 03:40:28;;;;;;;1.20;1.00;;;25.70;43.00;;;;;;4977991;28;20411;-62
2023/07/04 03:42:53;;;;;;;1.42;1.10;;;25.70;43.00;;;;;;4977986;28;20031;-62
2023/07/04 03:45:19;;;;;;;1.02;0.80;;;25.70;43.00;;;;;;4968119;28;20028;-62
2023/07/04 03:47:44;;;;;;;1.55;1.10;;;25.70;43.00;;;;;;4978416;28;20502;-63
2023/07/04 03:50:13;;;;;;;1.60;1.00;;;25.70;43.00;;;;;;4979463;28;20030;-62
2023/07/04 03:52:39;;;;;;;1.55;1.10;;;25.70;43.00;;;;;;4977234;28;20422;-62
2023/07/04 03:55:06;;;;;;;1.15;0.95;;;25.70;43.50;;;;;;4977604;28;20054;-62
2023/07/04 03:57:31;;;;;;;1.20;0.93;;;25.70;43.00;;;;;;4978549;28;20035;-62
2023/07/04 03:59:57;;;;;;;1.92;1.10;;;25.70;43.00;;;;;;4977614;28;20391;-62
2023/07/04 04:02:23;;;;;;;1.52;1.00;;;25.70;43.10;;;;;;4970206;28;20031;-62
2023/07/04 04:04:48;;;;;;;1.45;1.10;;;25.70;43.00;;;;;;4979199;28;20027;-62
2023/07/04 04:07:14;;;;;;;1.58;1.10;;;25.70;43.10;;;;;;4978575;28;20027;-62
2023/07/04 04:09:40;;;;;;;1.75;1.10;;;25.70;43.10;;;;;;4963867;28;20030;-62
2023/07/04 04:12:07;;;;;;;1.65;1.05;;;25.70;43.10;;;;;;4978978;28;20029;-62
2023/07/04 04:14:35;;;;;;;1.00;0.88;;;25.70;43.20;;;;;;4959787;28;20026;-62
2023/07/04 04:17:00;;;;;;;1.52;1.00;;;25.70;43.10;;;;;;4960335;28;20031;-62
2023/07/04 04:19:27;;;;;;;1.27;1.00;;;25.70;43.10;;;;;;4979047;28;20034;-63
2023/07/04 04:21:53;;;;;;;1.40;0.93;;;25.70;43.20;;;;;;4977422;28;20043;-62
2023/07/04 04:24:20;;;;;;;1.45;1.00;;;25.70;43.70;;;;;;4976400;28;20031;-62
2023/07/04 04:26:47;;;;;;;1.65;1.10;;;25.70;43.20;;;;;;4978381;28;20022;-62
2023/07/04 04:29:15;;;;;;;1.35;1.08;;;25.70;43.30;;;;;;4975562;28;20026;-62
2023/07/04 04:31:45;;;;;;;1.45;1.00;;;25.70;43.30;;;;;;4977581;28;20066;-62
2023/07/04 04:34:11;;;;;;;1.80;1.10;;;25.70;43.30;;;;;;4976210;28;20049;-62
2023/07/04 04:36:37;;;;;;;1.48;1.10;;;25.70;43.30;;;;;;4978927;28;20545;-62
2023/07/04 04:39:04;;;;;;;1.88;1.13;;;25.70;43.30;;;;;;4979584;28;20027;-62
2023/07/04 04:41:36;;;;;;;1.52;1.10;;;25.70;43.30;;;;;;4964546;28;20030;-62
2023/07/04 04:44:04;;;;;;;1.63;1.00;;;25.70;43.30;;;;;;4975789;28;20031;-62
2023/07/04 04:46:30;;;;;;;1.65;1.10;;;25.70;43.30;;;;;;4966874;28;20027;-62
2023/07/04 04:48:58;;;;;;;1.58;1.00;;;25.60;43.30;;;;;;4978308;28;20126;-62
2023/07/04 04:51:24;;;;;;;1.88;1.25;;;25.60;43.30;;;;;;4979652;28;20595;-62
2023/07/04 04:53:50;;;;;;;1.65;1.10;;;25.60;43.30;;;;;;4979073;28;20696;-62
2023/07/04 04:56:16;;;;;;;1.48;1.00;;;25.60;43.30;;;;;;4977210;28;20030;-62
2023/07/04 04:58:43;;;;;;;1.98;1.20;;;25.60;43.30;;;;;;4971022;28;20094;-62
2023/07/04 05:01:19;;;;;;;1.30;0.90;;;25.60;43.40;;;;;;4981546;28;20030;-62
2023/07/04 05:03:45;;;;;;;1.42;1.00;;;25.60;43.40;;;;;;4982443;28;20034;-61
2023/07/04 05:06:15;;;;;;;1.50;0.95;;;25.60;43.40;;;;;;4974334;28;20485;-62
2023/07/04 05:08:41;;;;;;;1.67;1.10;;;25.60;43.40;;;;;;4963140;28;20030;-62
2023/07/04 05:11:08;;;;;;;1.80;1.00;;;25.60;43.50;;;;;;4982746;28;20030;-62
2023/07/04 05:13:50;;;;;;;1.00;0.90;;;25.60;44.10;;;;;;4982050;28;20034;-62
2023/07/04 05:16:18;;;;;;;1.52;1.10;;;25.60;43.60;;;;;;4971166;28;20038;-62
2023/07/04 05:18:47;;;;;;;1.48;1.00;;;25.60;43.50;;;;;;4980962;28;20029;-62
2023/07/04 05:21:17;;;;;;;;;;;25.60;43.60;;;;;;4982056;28;20038;-62
2023/07/04 05:23:45;;;;;;;1.55;1.05;;;25.60;43.60;;;;;;4972195;28;19924;-62
2023/07/04 05:26:22;;;;;;;1.35;0.90;;;25.60;43.60;;;;;;4964529;28;20033;-62
2023/07/04 05:28:49;;;;;;;2.08;1.02;;;25.60;43.60;;;;;;4981369;28;20030;-62
2023/07/04 05:31:17;;;;;;;1.52;1.20;;;25.60;43.60;;;;;;4980931;28;20487;-62
2023/07/04 05:33:44;;;;;;;1.73;1.03;;;25.60;43.60;;;;;;4980124;28;20033;-62
2023/07/04 05:36:14;;;;;;;1.77;1.10;;;25.60;43.60;;;;;;4980059;28;20487;-62
2023/07/04 05:38:41;;;;;;;1.50;1.00;;;25.60;43.60;;;;;;4979925;28;20478;-62
2023/07/04 05:41:08;;;;;;;1.33;1.10;;;25.60;43.70;;;;;;4979895;28;20491;-62
2023/07/04 05:43:34;;;;;;;1.92;1.17;;;25.60;43.70;;;;;;4981224;28;20030;-62
2023/07/04 05:46:00;;;;;;;1.42;1.00;;;25.60;43.80;;;;;;4979804;28;20395;-61
2023/07/04 05:48:26;;;;;;;2.00;1.02;;;25.60;43.80;;;;;;4978651;28;20034;-61
2023/07/04 05:50:57;;;;;;;2.28;1.15;;;25.60;43.70;;;;;;4971924;28;20026;-61
2023/07/04 05:53:25;;;;;;;1.50;1.05;;;25.60;43.70;;;;;;4981718;28;20049;-62
2023/07/04 05:55:52;;;;;;;1.60;1.10;;;25.50;43.70;;;;;;4980683;28;20034;-61
2023/07/04 05:58:19;;;;;;;1.73;1.00;;;25.60;43.80;;;;;;4982182;28;20109;-61
2023/07/04 06:00:47;;;;;;;1.55;1.00;;;25.60;43.70;;;;;;4979567;28;20026;-62
2023/07/04 06:03:17;;;;;;;1.58;1.02;;;25.50;43.70;;;;;;4962693;28;20545;-62
2023/07/04 06:05:43;;;;;;;2.05;1.20;;;25.60;43.80;;;;;;4980569;28;20019;-61
2023/07/04 06:08:12;;;;;;;1.40;0.90;;;25.50;43.70;;;;;;4965124;28;20034;-62
2023/07/04 06:10:38;;;;;;;2.42;1.10;;;25.50;43.70;;;;;;4970339;28;20027;-62
2023/07/04 06:13:03;;;;;;;1.45;0.93;;;25.60;43.80;;;;;;4980786;28;20466;-62
2023/07/04 06:15:30;;;;;;;1.80;1.10;;;25.50;43.70;;;;;;4977980;28;20058;-61
2023/07/04 06:17:55;;;;;;;1.80;1.10;;;25.50;43.80;;;;;;4965772;28;20549;-61
2023/07/04 06:20:22;;;;;;;2.40;1.30;;;25.50;43.80;;;;;;4964656;28;20022;-61
2023/07/04 06:22:48;;;;;;;1.70;1.10;;;25.50;43.80;;;;;;4982570;28;20037;-61
2023/07/04 06:25:14;;;;;;;1.23;1.00;;;25.50;43.80;;;;;;4970005;28;20019;-62
2023/07/04 06:27:41;;;;;;;1.60;1.02;;;25.50;43.80;;;;;;4962850;28;20034;-61
2023/07/04 06:30:08;;;;;;;1.42;0.95;;;25.50;43.80;;;;;;4979453;28;20574;-62
2023/07/04 06:32:34;;;;;;;2.13;1.00;;;25.50;43.90;;;;;;4965111;28;20030;-61
2023/07/04 06:35:00;;;;;;;1.25;1.00;;;25.50;43.90;;;;;;4980876;28;20058;-61
2023/07/04 06:37:29;;;;;;;1.73;1.08;;;25.50;43.90;;;;;;4982502;28;20023;-61
2023/07/04 06:39:54;;;;;;;2.25;1.00;;;25.50;43.90;;;;;;4965937;28;20080;-62
2023/07/04 06:42:20;;;;;;;2.13;1.00;;;25.50;44.00;;;;;;4980514;28;20038;-61
2023/07/04 06:44:46;;;;;;;1.70;1.05;;;25.50;44.00;;;;;;4980182;28;20031;-61
2023/07/04 06:47:11;;;;;;;1.67;1.00;;;25.50;44.00;;;;;;4980635;28;20065;-62
2023/07/04 06:49:37;;;;;;;1.60;1.10;;;25.50;44.00;;;;;;4976279;28;20398;-61
2023/07/04 06:52:03;;;;;;;1.40;1.00;;;25.50;44.00;;;;;;4980711;28;20033;-61
2023/07/04 06:54:29;;;;;;;1.20;0.90;;;25.50;44.00;;;;;;4980969;28;20391;-61
2023/07/04 06:56:57;;;;;;;1.63;1.10;;;25.50;44.00;;;;;;4979551;28;20031;-61
2023/07/04 06:59:23;;;;;;;1.60;1.10;;;25.50;44.00;;;;;;4979546;28;20054;-62
2023/07/04 07:01:48;;;;;;;1.27;1.00;;;25.50;44.00;;;;;;4977798;28;20391;-61
2023/07/04 07:04:16;;;;;;;1.73;1.10;;;25.50;44.00;;;;;;4978298;28;20031;-61
2023/07/04 07:06:44;;;;;;;1.33;0.90;;;25.50;44.00;;;;;;4970610;28;20030;-61
2023/07/04 07:09:10;;;;;;;1.50;1.00;;;25.50;44.00;;;;;;4979877;28;20033;-62
2023/07/04 07:11:36;;;;;;;1.50;1.00;;;25.50;44.00;;;;;;4979785;28;20101;-62
2023/07/04 07:14:02;;;;;;;1.33;0.95;;;25.40;44.00;;;;;;4980155;28;20499;-61
2023/07/04 07:16:28;;;;;;;1.52;1.00;;;25.40;44.00;;;;;;4977734;28;20126;-61
2023/07/04 07:18:54;;;;;;;1.17;0.90;;;25.40;44.00;;;;;;4981301;28;20109;-61
2023/07/04 07:21:23;;;;;;;1.75;1.00;;;25.50;44.60;;;;;;4977626;28;20035;-61
2023/07/04 07:23:50;;;;;;;1.35;0.90;;;25.40;44.00;;;;;;4963279;28;20035;-61
2023/07/04 07:26:25;;;;;;;1.52;0.93;;;25.40;44.00;;;;;;4980430;28;20035;-62
2023/07/04 07:28:50;;;;;;;1.45;1.00;;;25.50;44.10;;;;;;4968701;28;20027;-62
2023/07/04 07:31:22;;;;;;;1.88;1.08;;;25.40;44.00;;;;;;4968723;28;20129;-62
2023/07/04 07:33:49;;;;;;;1.70;1.00;;;25.40;44.00;;;;;;4978648;28;20034;-61
2023/07/04 07:36:27;;;;;;;1.30;1.00;;;25.40;44.00;;;;;;4978491;28;20041;-62
2023/07/04 07:38:55;;;;;;;2.00;1.08;;;25.40;44.10;;;;;;4978384;28;20511;-61
2023/07/04 07:41:25;;;;;;;1.25;0.90;;;25.40;44.00;;;;;;4969979;28;20085;-61
2023/07/04 07:43:50;;;;;;;1.73;1.10;;;25.40;44.10;;;;;;4977169;28;20153;-62
2023/07/04 07:46:18;;;;;;;2.00;1.08;;;25.40;44.10;;;;;;4968153;28;20126;-62
2023/07/04 07:48:44;;;;;;;1.92;1.10;;;25.40;44.10;;;;;;4968545;28;20368;-61
2023/07/04 07:51:12;;;;;;;1.10;0.98;;;25.40;44.10;;;;;;4977247;28;20546;-61
2023/07/04 07:53:42;;;;;;;1.58;1.00;;;25.40;44.20;;;;;;4961857;28;20042;-61
2023/07/04 07:56:09;;;;;;;1.70;1.05;;;25.40;44.10;;;;;;4978343;28;20076;-62
2023/07/04 07:58:36;;;;;;;1.90;1.10;;;25.40;44.10;;;;;;4966753;28;20541;-62
2023/07/04 08:01:15;;;;;;;1.30;1.00;;;25.40;44.10;;;;;;4981047;28;20030;-62
2023/07/04 08:03:42;;;;;;;1.42;0.93;;;25.40;44.20;;;;;;4967560;28;20185;-61
2023/07/04 08:06:09;;;;;;;1.85;1.00;;;25.40;44.20;;;;;;4967734;28;20023;-62
2023/07/04 08:08:35;;;;;;;2.10;1.10;;;25.40;44.20;;;;;;4979859;28;20120;-61
2023/07/04 08:11:03;;;;;;;2.45;1.10;;;25.40;44.20;;;;;;4980449;28;20046;-62
2023/07/04 08:13:29;;;;;;;1.35;0.95;;;25.40;44.20;;;;;;4978222;28;20066;-62
2023/07/04 08:15:55;;;;;;;1.35;0.90;;;25.40;44.20;;;;;;4979242;28;20507;-61
2023/07/04 08:18:21;;;;;;;2.03;1.10;;;25.40;44.20;;;;;;4976684;28;20120;-61
2023/07/04 08:21:01;;;;;;;1.65;1.10;;;25.40;44.20;;;;;;4978521;28;20466;-62
2023/07/04 08:23:27;;;;;;;;;;;25.40;44.30;;;;;;4979076;28;20027;-62
2023/07/04 08:25:58;;;;;;;1.23;0.98;;;25.40;44.30;;;;;;4979368;28;19907;-62
2023/07/04 08:28:26;;;;;;;1.25;0.95;;;25.40;44.20;;;;;;4979913;28;20026;-61
2023/07/04 08:31:03;;;;;;;1.92;1.10;;;25.40;44.20;;;;;;4976968;28;20034;-62
2023/07/04 08:33:29;;;;;;;1.80;1.10;;;25.40;44.30;;;;;;4975995;28;20410;-62
2023/07/04 08:36:00;;;;;;;1.85;1.00;;;25.40;44.30;;;;;;4979940;28;20404;-62
2023/07/04 08:38:27;;;;;;;1.50;0.88;;;25.40;44.20;;;;;;4983812;28;20038;-62
2023/07/04 08:40:53;;;;;;;1.48;1.00;;;25.40;44.20;;;;;;4981871;28;20037;-62
2023/07/04 08:43:43;;;;;;;1.70;1.05;;;25.40;44.20;;;;;;4973293;28;20039;-61
2023/07/04 08:46:12;;;;;;;1.40;0.98;;;25.40;44.30;;;;;;4979975;28;20516;-61
2023/07/04 08:48:40;;;;;;;1.60;1.10;;;25.40;44.20;;;;;;4971208;28;20125;-61
2023/07/04 08:51:06;;;;;;;1.23;1.00;;;25.40;44.20;;;;;;4983403;28;20045;-61
2023/07/04 08:53:34;;;;;;;1.52;0.90;;;25.40;44.20;;;;;;4982382;28;20027;-62
2023/07/04 08:56:17;;;;;;;1.90;1.10;;;25.40;44.20;;;;;;4982584;28;20077;-61
2023/07/04 08:58:58;;;;;;;1.63;1.15;;;25.40;44.20;;;;;;4964004;28;20181;-61
2023/07/04 09:01:39;;;;;;;1.60;1.10;;;25.40;44.20;;;;;;4979268;28;20045;-62
2023/07/04 09:04:14;;;;;;;1.50;1.00;;;25.40;44.20;;;;;;4972498;28;20027;-62
2023/07/04 09:06:52;;;;;;;2.05;1.00;;;25.40;44.20;;;;;;4983684;28;20335;-62
2023/07/04 09:09:39;;;;;;;1.38;1.08;;;25.40;44.20;;;;;;4980363;28;20034;-62
2023/07/04 09:12:08;;;;;;;1.50;1.05;;;25.40;44.20;;;;;;4962007;28;20537;-61
2023/07/04 09:14:50;;;;;;;1.58;1.08;;;25.40;44.20;;;;;;4980602;28;20034;-62
2023/07/04 09:17:48;;;;;;;2.17;1.20;;;25.40;44.20;;;;;;4981404;28;20027;-63
2023/07/04 09:20:14;;;;;;;1.83;1.00;;;25.40;44.20;;;;;;4980076;28;20526;-61
2023/07/04 09:22:39;;;;;;;1.42;1.00;;;25.40;44.20;;;;;;4965243;28;20046;-62
2023/07/04 09:25:07;;;;;;;1.60;1.10;;;25.40;44.20;;;;;;4963935;28;20054;-61
2023/07/04 09:27:33;;;;;;;1.50;1.00;;;25.40;44.20;;;;;;4965284;28;20022;-61
2023/07/04 09:30:03;;;;;;;1.80;1.10;;;25.40;44.20;;;;;;4983105;28;20039;-63
2023/07/04 09:32:29;;;;;;;1.70;1.17;;;25.40;44.20;;;;;;4964012;28;20026;-63
2023/07/04 09:35:01;;;;;;;2.03;1.02;;;25.40;44.20;;;;;;4966661;28;20077;-63
2023/07/04 09:37:28;;;;;;;1.25;0.90;;;25.40;44.20;;;;;;4982367;28;20026;-63
2023/07/04 09:39:56;;;;;;;1.58;1.05;;;25.40;44.20;;;;;;4969007;28;20474;-63
2023/07/04 09:42:31;;;;;;;1.88;1.10;;;25.40;44.20;;;;;;4980156;28;20031;-63
2023/07/04 09:44:56;;;;;;;1.80;1.20;;;25.40;44.20;;;;;;4980185;28;20487;-62
2023/07/04 09:47:31;;;;;;;1.80;1.00;;;25.40;44.20;;;;;;4970784;28;20019;-63
2023/07/04 09:50:36;;;;;;;1.55;1.13;;;25.40;44.20;;;;;;4980159;28;20474;-63
2023/07/04 09:53:18;;;;;;;1.50;1.02;;;25.40;44.20;;;;;;4981755;28;20052;-63
2023/07/04 09:55:57;;;;;;;1.52;1.05;;;25.40;44.20;;;;;;4980939;28;20518;-63
2023/07/04 09:58:25;;;;;;;1.48;1.00;;;25.40;44.20;;;;;;4979111;28;20173;-63
2023/07/04 10:01:16;;;;;;;1.90;1.20;;;25.40;44.20;;;;;;4980554;28;20060;-63
2023/07/04 10:03:48;;;;;;;1.38;1.13;;;25.40;44.30;;;;;;4960998;28;20360;-63
2023/07/04 10:06:29;;;;;;;1.88;1.08;;;25.40;44.20;;;;;;4980797;28;20030;-63
2023/07/04 10:08:56;;;;;;;1.60;1.08;;;25.40;44.30;;;;;;4981272;28;20018;-63
2023/07/04 10:11:39;;;;;;;1.48;1.00;;;25.40;44.20;;;;;;4980292;28;20573;-63
2023/07/04 10:14:07;;;;;;;1.98;1.10;;;25.40;44.20;;;;;;4979303;28;20101;-63
2023/07/04 10:16:34;;;;;;;1.33;1.08;;;25.40;44.30;;;;;;4980133;28;20030;-63
2023/07/04 10:19:15;;;;;;;1.60;1.00;;;25.40;44.30;;;;;;4979511;28;20478;-63
2023/07/04 10:21:48;;;;;;;2.67;1.10;;;25.40;44.30;;;;;;4980300;28;20030;-63
2023/07/04 10:24:34;;;;;;;2.05;1.17;;;25.40;44.30;;;;;;4970398;28;20033;-63
2023/07/04 10:27:03;;;;;;;1.80;1.10;;;25.40;44.30;;;;;;4981127;28;20022;-63
2023/07/04 10:29:39;;;;;;;1.25;1.00;;;25.40;44.30;;;;;;4979592;28;20057;-63
2023/07/04 10:32:13;;;;;;;1.80;1.17;;;25.40;44.30;;;;;;4980548;28;20055;-63
2023/07/04 10:34:41;;;;;;;1.50;1.10;;;25.40;44.30;;;;;;4968106;28;20054;-63
2023/07/04 10:37:15;;;;;;;1.90;1.15;;;25.40;44.30;;;;;;4981423;28;20494;-63
2023/07/04 10:39:41;;;;;;;1.52;1.10;;;25.40;44.30;;;;;;4962838;28;20026;-63
2023/07/04 10:42:21;;;;;;;1.63;1.10;;;25.40;44.30;;;;;;4980751;28;20513;-63
2023/07/04 10:44:50;;;;;;;1.55;1.02;;;25.40;44.30;;;;;;4980916;28;20981;-62
2023/07/04 10:47:37;;;;;;;1.95;1.35;;;25.40;44.30;;;;;;4962830;28;20406;-63
2023/07/04 10:50:11;;;;;;;1.60;1.10;;;25.40;44.30;;;;;;4963501;28;20090;-63
2023/07/04 10:52:43;;;;;;;1.83;1.10;;;25.40;44.30;;;;;;4976977;28;20468;-63
2023/07/04 10:55:17;;;;;;;1.70;1.08;;;25.40;44.30;;;;;;4983863;28;20363;-63
2023/07/04 10:58:22;;;;;;;1.88;1.30;;;25.40;44.30;;;;;;4964556;28;20408;-62
2023/07/04 11:00:58;;;;;;;1.40;1.10;;;25.40;44.30;;;;;;4964295;28;20058;-63
2023/07/04 11:03:45;;;;;;;1.38;1.10;;;25.40;44.30;;;;;;4978319;28;20037;-63
2023/07/04 11:06:18;;;;;;;1.70;1.17;;;25.40;44.20;;;;;;4979138;28;20454;-63
2023/07/04 11:08:45;;;;;;;1.88;1.10;;;25.40;44.20;;;;;;4980759;28;20029;-63
2023/07/04 11:11:25;;;;;;;1.65;1.05;;;25.40;44.20;;;;;;4965460;28;20494;-63
2023/07/04 11:13:56;;;;;;;1.75;1.10;;;25.40;44.20;;;;;;4978264;28;20026;-63
2023/07/04 11:16:31;;;;;;;1.50;1.02;;;25.40;44.20;;;;;;4979832;28;20406;-63
2023/07/04 11:19:19;;;;;;;1.40;1.05;;;25.40;44.20;;;;;;4963174;28;20026;-63
2023/07/04 11:22:07;;;;;;;1.60;1.10;;;25.40;44.20;;;;;;4964362;28;20039;-63
2023/07/04 11:24:37;;;;;;;1.48;1.08;;;25.40;44.20;;;;;;4977394;28;20593;-63
2023/07/04 11:27:14;;;;;;;1.85;1.15;;;25.40;44.20;;;;;;4980066;28;20030;-63
2023/07/04 11:30:28;;;;;;;1.27;1.00;;;25.50;44.30;;;;;;4979026;28;20476;-61
2023/07/04 11:32:57;;;;;;;1.52;1.00;;;25.40;44.30;;;;;;4977988;28;20534;-62
2023/07/04 11:35:23;;;;;;;1.92;1.20;;;25.40;44.80;;;;;;4979927;28;20026;-61
2023/07/04 11:38:03;;;;;;;1.48;1.02;;;25.50;44.30;;;;;;4979639;28;20038;-62
2023/07/04 11:40:49;;;;;;;1.95;1.23;;;25.50;44.30;;;;;;4980182;28;20035;-62
2023/07/04 11:43:41;;;;;;;1.40;1.05;;;25.50;44.30;;;;;;4976667;28;20459;-62
2023/07/04 11:46:07;;;;;;;1.55;1.05;;;25.40;44.20;;;;;;4978788;28;20023;-62
2023/07/04 11:48:48;;;;;;;1.67;1.17;;;25.50;44.30;;;;;;4976587;28;20026;-62
2023/07/04 11:51:15;;;;;;;1.52;1.00;;;25.50;44.30;;;;;;4977657;28;20026;-62
2023/07/04 11:53:46;;;;;;;1.23;1.00;;;25.50;44.30;;;;;;4977104;28;20075;-60
2023/07/04 11:56:26;;;;;;;1.48;1.08;;;25.50;44.30;;;;;;4981023;28;20034;-61
2023/07/04 11:59:10;;;;;;;1.50;1.02;;;25.50;44.30;;;;;;4977079;28;20034;-61
2023/07/04 12:01:51;;;;;;;1.73;1.10;;;25.50;44.30;;;;;;4961867;28;20037;-62
2023/07/04 12:04:43;;;;;;;1.40;1.10;;;25.50;44.30;;;;;;4976961;28;20030;-62
2023/07/04 12:07:18;;;;;;;1.90;1.20;;;25.50;44.30;;;;;;4976232;28;20031;-61
2023/07/04 12:09:50;;;;;;;1.63;1.00;;;25.50;44.30;;;;;;4977368;28;20026;-62
2023/07/04 12:12:21;;;;;;;1.60;1.17;;;25.50;44.30;;;;;;4978429;28;20030;-61
2023/07/04 12:14:50;;;;;;;1.90;1.20;;;25.50;44.30;;;;;;4977359;28;20035;-62
2023/07/04 12:17:16;;;;;;;1.38;1.00;;;25.50;44.30;;;;;;4978460;28;20114;-62
2023/07/04 12:19:42;;;;;;;1.95;1.30;;;25.50;44.30;;;;;;4977174;28;20031;-62
2023/07/04 12:22:15;;;;;;;1.60;1.10;;;25.50;44.30;;;;;;4980165;28;20042;-62
2023/07/04 12:24:40;;;;;;;1.80;1.13;;;25.50;44.30;;;;;;4980137;28;20092;-62
2023/07/04 12:27:07;;;;;;;1.85;1.20;;;25.60;44.40;;;;;;4978554;28;20451;-62
2023/07/04 12:29:42;;;;;;;1.98;1.10;;;25.50;44.30;;;;;;4957799;28;20073;-62
2023/07/04 12:32:14;;;;;;;1.88;1.20;;;25.50;44.30;;;;;;4978803;28;20510;-62
2023/07/04 12:34:40;;;;;;;1.98;1.13;;;25.50;44.30;;;;;;4958963;28;20031;-62
2023/07/04 12:37:05;;;;;;;1.98;1.27;;;25.50;44.30;;;;;;4962182;28;20037;-61
2023/07/04 12:39:42;;;;;;;1.67;1.17;;;25.50;44.30;;;;;;4977762;28;20038;-62
2023/07/04 12:42:13;;;;;;;1.60;1.17;;;25.50;44.30;;;;;;4965095;28;20066;-62
2023/07/04 12:44:38;;;;;;;1.50;1.00;;;25.50;44.20;;;;;;4978343;28;20489;-62
2023/07/04 12:47:14;;;;;;;1.80;1.20;;;25.50;44.20;;;;;;4962638;28;20173;-62
2023/07/04 12:49:40;;;;;;;1.42;1.10;;;25.60;44.30;;;;;;4975186;28;20066;-63
2023/07/04 12:52:06;;;;;;;2.00;1.20;;;25.60;44.30;;;;;;4969336;28;20030;-61
2023/07/04 12:54:34;;;;;;;2.33;1.23;;;25.60;44.30;;;;;;4979978;28;20122;-63
2023/07/04 12:57:01;;;;;;;2.10;1.20;;;25.60;44.30;;;;;;4961125;28;20391;-62
2023/07/04 12:59:31;;;;;;;1.52;1.10;;;25.60;44.30;;;;;;4976884;28;20110;-61
2023/07/04 13:01:57;;;;;;;2.20;1.20;;;25.60;44.30;;;;;;4977194;28;20118;-62